Time;durP1;ratioP1;P1;durP2;ratioP2;P2;SDS_P1;SDS_P2;PMS_P1;PMS_P2;Temp;Humidity;BMP_temperature;BMP_pressure;BME280_temperature;BME280_humidity;BME280_pressure;Samples;Min_cycle;Max_cycle;Signal;HPM_P1;HPM_P2
2021/04/18 00:00:16;;;;;;;118.70;22.48;;;;;;;6.44;84.55;101038.66;1742730;81;25932;-75
2021/04/18 00:02:49;;;;;;;96.60;25.75;;;;;;;6.41;84.47;101042.48;1719405;81;25880;-74
2021/04/18 00:05:23;;;;;;;93.85;24.67;;;;;;;6.38;84.72;101046.75;1716510;81;26114;-75
2021/04/18 00:07:54;;;;;;;87.92;25.20;;;;;;;6.41;85.14;101046.95;1741978;81;25992;-75
2021/04/18 00:10:22;;;;;;;99.75;25.48;;;;;;;6.40;85.23;101045.27;1669272;81;26547;-76
2021/04/18 00:12:49;;;;;;;94.58;26.97;;;;;;;6.42;85.46;101049.94;1694083;81;26068;-74
2021/04/18 00:15:19;;;;;;;84.55;26.40;;;;;;;6.43;85.57;101051.14;1716245;81;28929;-75
2021/04/18 00:17:46;;;;;;;88.42;26.85;;;;;;;6.47;85.70;101055.18;1714508;81;25852;-74
2021/04/18 00:20:14;;;;;;;54.35;25.08;;;;;;;6.44;85.59;101059.45;1716916;81;25792;-75
2021/04/18 00:22:43;;;;;;;85.40;26.87;;;;;;;6.41;85.57;101061.59;1725204;81;25828;-76
2021/04/18 00:25:14;;;;;;;71.00;27.27;;;;;;;6.36;85.71;101061.19;1734388;81;25752;-75
2021/04/18 00:27:43;;;;;;;83.42;29.00;;;;;;;6.30;85.71;101069.28;1702180;82;27348;-74
2021/04/18 00:30:16;;;;;;;69.42;27.52;;;;;;;6.31;85.79;101054.16;1685973;82;26389;-75
2021/04/18 00:32:46;;;;;;;58.63;27.27;;;;;;;6.33;86.04;101054.85;1694590;82;26438;-75
2021/04/18 00:35:16;;;;;;;106.95;28.70;;;;;;;6.33;86.05;101045.02;1710751;83;26472;-75
2021/04/18 00:37:47;;;;;;;94.67;28.35;;;;;;;6.30;85.97;101051.14;1727545;81;26081;-75
2021/04/18 00:40:20;;;;;;;86.22;28.45;;;;;;;6.28;86.03;101049.12;1703130;81;28448;-75
2021/04/18 00:42:50;;;;;;;84.58;23.50;;;;;;;6.30;86.17;101043.16;1724641;81;25735;-75
2021/04/18 00:45:19;;;;;;;95.05;24.18;;;;;;;6.29;86.02;101040.98;1727041;81;26151;-75
2021/04/18 00:47:51;;;;;;;111.52;26.62;;;;;;;6.26;85.97;101039.97;1676009;82;25773;-75
2021/04/18 00:50:37;;;;;;;96.65;26.05;;;;;;;6.25;86.11;101039.61;1689068;83;25945;-76
2021/04/18 00:53:09;;;;;;;72.82;25.12;;;;;;;6.24;86.22;101040.61;1708637;81;28330;-74
2021/04/18 00:55:40;;;;;;;86.17;26.33;;;;;;;6.26;86.43;101043.12;1703970;82;26492;-75
2021/04/18 00:58:10;;;;;;;59.03;25.77;;;;;;;6.29;86.43;101042.31;1737869;81;25879;-75
2021/04/18 01:00:41;;;;;;;55.08;25.12;;;;;;;6.32;86.55;101037.20;1674692;82;26421;-75
2021/04/18 01:03:09;;;;;;;83.00;26.85;;;;;;;6.37;86.60;101033.61;1687384;81;26407;-76
2021/04/18 01:05:40;;;;;;;63.38;23.65;;;;;;;6.39;86.60;101031.63;1728753;81;27549;-75
2021/04/18 01:08:12;;;;;;;101.02;27.55;;;;;;;6.43;86.71;101033.01;1684453;83;26048;-74
2021/04/18 01:10:40;;;;;;;61.28;25.97;;;;;;;6.45;86.70;101033.69;1708419;83;25927;-76
2021/04/18 01:13:08;;;;;;;91.35;28.92;;;;;;;6.49;86.82;101029.25;1716313;83;26502;-75
2021/04/18 01:15:38;;;;;;;72.12;26.30;;;;;;;6.53;86.76;101030.63;1670153;84;26248;-75
2021/04/18 01:18:05;;;;;;;69.75;28.35;;;;;;;6.56;86.85;101029.01;1694984;84;28370;-75
2021/04/18 01:20:33;;;;;;;61.05;27.22;;;;;;;6.58;86.83;101023.04;1671886;83;26464;-75
2021/04/18 01:23:23;;;;;;;71.40;27.45;;;;;;;6.67;86.80;101019.97;1825751;77;25767;-74
2021/04/18 01:25:55;;;;;;;106.72;29.40;;;;;;;6.63;86.83;101016.75;1758366;78;26092;-75
2021/04/18 01:28:24;;;;;;;107.50;27.27;;;;;;;6.66;86.85;101020.45;1773340;78;27535;-74
2021/04/18 01:30:54;;;;;;;94.72;27.52;;;;;;;6.67;86.79;101018.12;1770314;78;26445;-75
2021/04/18 01:33:24;;;;;;;115.65;29.63;;;;;;;6.68;86.81;101026.45;1768703;79;25855;-75
2021/04/18 01:35:54;;;;;;;102.47;28.52;;;;;;;6.69;86.79;101024.64;1771476;80;25802;-75
2021/04/18 01:38:22;;;;;;;114.60;29.75;;;;;;;6.70;86.79;101022.30;1677675;81;25900;-75
2021/04/18 01:40:50;;;;;;;102.90;28.85;;;;;;;6.70;86.81;101024.97;1702622;82;26743;-75
2021/04/18 01:43:19;;;;;;;109.40;29.65;;;;;;;6.73;86.91;101024.19;1743788;80;26089;-75
2021/04/18 01:45:51;;;;;;;112.90;28.98;;;;;;;6.74;86.92;101017.86;1745377;81;25805;-75
2021/04/18 01:48:20;;;;;;;101.12;31.23;;;;;;;6.75;86.89;101018.70;1694473;81;25815;-75
2021/04/18 01:50:51;;;;;;;92.15;29.45;;;;;;;6.73;86.89;101020.20;1699771;81;25842;-74
2021/04/18 01:53:20;;;;;;;75.60;28.87;;;;;;;6.76;87.05;101019.87;1750757;81;28041;-76
2021/04/18 01:55:49;;;;;;;104.38;32.28;;;;;;;6.79;87.02;101014.26;1744904;81;26532;-75
2021/04/18 01:58:17;;;;;;;57.08;28.05;;;;;;;6.81;87.08;101013.61;1740659;81;25840;-75
2021/04/18 02:01:05;;;;;;;58.92;28.35;;;;;;;6.78;87.02;101014.39;1706536;81;26041;-75
2021/04/18 02:03:35;;;;;;;81.63;30.47;;;;;;;6.80;87.22;101013.25;1763974;80;25801;-75
2021/04/18 02:06:06;;;;;;;78.67;32.28;;;;;;;6.84;87.35;101008.48;1737430;81;27536;-75
2021/04/18 02:08:35;;;;;;;74.50;28.47;;;;;;;6.88;87.57;101001.86;1686007;82;25814;-75
2021/04/18 02:11:05;;;;;;;83.55;29.55;;;;;;;6.90;87.80;101007.86;1740459;81;25727;-75
2021/04/18 02:13:33;;;;;;;81.00;29.02;;;;;;;6.93;87.85;101015.04;1709861;82;25964;-75
2021/04/18 02:16:26;;;;;;;82.17;28.92;;;;;;;7.01;87.97;101007.11;1825371;77;25788;-75
2021/04/18 02:18:55;;;;;;;66.77;29.20;;;;;;;6.98;88.19;101007.44;1803388;78;26158;-75
2021/04/18 02:21:24;;;;;;;63.00;29.35;;;;;;;7.03;88.24;101010.98;1768825;78;27647;-74
2021/04/18 02:23:52;;;;;;;75.28;27.05;;;;;;;7.07;88.27;101003.02;1776204;78;26398;-75
2021/04/18 02:26:20;;;;;;;80.70;28.65;;;;;;;7.11;88.33;101005.70;1758626;79;26295;-76
2021/04/18 02:28:50;;;;;;;81.22;25.55;;;;;;;7.11;88.27;101005.70;1785588;78;26007;-75
2021/04/18 02:31:18;;;;;;;94.32;27.62;;;;;;;7.11;88.29;101003.05;1750505;78;25936;-75
2021/04/18 02:33:45;;;;;;;90.85;28.23;;;;;;;7.11;88.31;101003.53;1774489;78;28224;-75
2021/04/18 02:36:14;;;;;;;84.37;28.52;;;;;;;7.11;88.31;100998.20;1775658;78;26135;-75
2021/04/18 02:38:43;;;;;;;109.83;28.05;;;;;;;7.11;88.32;100999.53;1794741;78;25799;-75
2021/04/18 02:41:13;;;;;;;87.65;26.50;;;;;;;7.09;88.31;100994.38;1774264;78;26703;-76
2021/04/18 02:43:44;;;;;;;;;;;;;;;7.07;88.33;100999.51;1755057;80;25716;-74
2021/04/18 02:46:13;;;;;;;73.97;24.32;;;;;;;7.10;88.48;100999.21;1779761;78;27547;-75
2021/04/18 02:48:41;;;;;;;58.83;24.80;;;;;;;7.09;88.60;100997.03;1778452;78;25768;-74
2021/04/18 02:51:09;;;;;;;106.40;25.60;;;;;;;7.10;88.51;100998.69;1727008;80;25933;-75
2021/04/18 02:53:38;;;;;;;107.87;28.02;;;;;;;7.10;88.49;101008.02;1716751;81;26424;-76
2021/04/18 02:56:06;;;;;;;62.50;25.65;;;;;;;7.13;88.55;101002.87;1725077;81;26224;-74
2021/04/18 02:58:49;;;;;;;59.53;26.73;;;;;;;7.19;88.59;100995.11;1831232;76;25642;-75
2021/04/18 03:01:19;;;;;;;114.20;27.58;;;;;;;7.17;88.64;100999.75;1799782;78;25846;-75
2021/04/18 03:03:48;;;;;;;;;;;;;;;7.19;88.58;100999.10;1772941;79;27328;-75
2021/04/18 03:06:16;;;;;;;;;;;;;;;7.21;88.62;101000.27;1792081;78;26204;-75
2021/04/18 03:08:44;;;;;;;;;;;;;;;7.21;88.76;101001.11;1795989;78;26016;-75
2021/04/18 03:11:12;;;;;;;;;;;;;;;7.24;88.81;101002.15;1762716;80;25814;-75
2021/04/18 03:13:40;;;;;;;;;;;;;;;7.26;88.80;100996.66;1796232;78;26461;-74
2021/04/18 03:16:07;;;;;;;;;;;;;;;7.24;88.62;100995.48;1800681;78;27699;-74
2021/04/18 03:18:38;;;;;;;;;;;;;;;7.23;88.61;101003.13;1800367;78;25764;-75
2021/04/18 03:21:06;;;;;;;;;;;;;;;7.22;88.61;101008.12;1775990;78;25827;-75
2021/04/18 03:23:34;;;;;;;;;;;;;;;7.20;88.51;101007.94;1795893;78;25837;-75
2021/04/18 03:26:03;;;;;;;;;;;;;;;7.17;88.54;101005.57;1769555;78;25648;-74
2021/04/18 03:28:33;;;;;;;;;;;;;;;7.13;88.39;101012.20;1804080;78;27731;-75
2021/04/18 03:31:01;;;;;;;;;;;;;;;7.11;88.59;101015.52;1783087;78;26547;-75
2021/04/18 03:33:31;;;;;;;;;;;;;;;7.12;88.77;101012.69;1771979;78;26423;-75
2021/04/18 03:36:04;;;;;;;;;;;;;;;7.14;88.81;101012.07;1793115;79;26571;-75
2021/04/18 03:38:34;;;;;;;;;;;;;;;7.18;88.92;101018.77;1785722;78;25832;-75
2021/04/18 03:41:03;;;;;;;;;;;;;;;7.21;88.83;101022.91;1802608;78;27338;-75
2021/04/18 03:43:30;;;;;;;;;;;;;;;7.21;88.72;101021.58;1782093;79;26080;-75
2021/04/18 03:45:58;;;;;;;;;;;;;;;7.22;88.71;101026.78;1779867;78;25715;-75
2021/04/18 03:48:27;;;;;;;;;;;;;;;7.21;88.58;101026.42;1796889;78;25681;-75
2021/04/18 03:50:55;;;;;;;;;;;;;;;7.18;88.59;101026.75;1787725;78;25938;-75
2021/04/18 03:53:27;;;;;;;;;;;;;;;7.16;88.63;101031.40;1782317;78;27332;-75
2021/04/18 03:55:56;;;;;;;;;;;;;;;7.17;88.76;101025.55;1796399;78;26503;-75
2021/04/18 03:58:25;;;;;;;;;;;;;;;7.17;88.67;101028.22;1797897;78;25840;-75
2021/04/18 04:00:55;;;;;;;;;;;;;;;7.15;88.67;101031.05;1798683;78;25725;-75
2021/04/18 04:03:24;;;;;;;;;;;;;;;7.18;88.84;101032.08;1764973;78;25911;-75
2021/04/18 04:05:53;;;;;;;;;;;;;;;7.18;88.79;101032.56;1795860;78;27526;-75
2021/04/18 04:08:23;;;;;;;;;;;;;;;7.18;88.73;101034.74;1793101;79;25888;-74
2021/04/18 04:10:50;;;;;;;;;;;;;;;7.16;88.66;101034.06;1766501;78;25852;-74
2021/04/18 04:13:18;;;;;;;;;;;;;;;7.17;88.83;101037.54;1771510;78;26400;-75
2021/04/18 04:15:46;;;;;;;;;;;;;;;7.15;88.81;101036.38;1792983;78;25727;-76
2021/04/18 04:18:14;;;;;;;;;;;;;;;7.15;88.79;101048.36;1798211;78;27545;-75
2021/04/18 04:20:46;;;;;;;;;;;;;;;7.11;88.75;101045.66;1773913;78;26509;-75
2021/04/18 04:23:20;;;;;;;;;;;;;;;7.13;88.97;101047.68;1742662;78;25927;-76
2021/04/18 04:25:48;;;;;;;;;;;;;;;7.14;88.94;101044.53;1772623;78;26187;-75
2021/04/18 04:28:15;;;;;;;;;;;;;;;7.16;89.01;101046.54;1792721;79;25932;-75
2021/04/18 04:30:43;;;;;;;;;;;;;;;7.19;89.08;101046.21;1782265;78;27581;-75
2021/04/18 04:33:10;;;;;;;;;;;;;;;7.24;89.21;101046.59;1774561;80;26233;-76
2021/04/18 04:35:41;;;;;;;;;;;;;;;7.26;89.12;101049.45;1796515;78;25769;-75
2021/04/18 04:38:08;;;;;;;;;;;;;;;7.28;89.15;101050.63;1804021;78;25837;-74
2021/04/18 04:40:35;;;;;;;;;;;;;;;7.27;88.90;101049.78;1776489;78;25872;-74
2021/04/18 04:43:04;;;;;;;;;;;;;;;7.23;88.86;101049.75;1752656;78;27534;-75
2021/04/18 04:45:31;;;;;;;;;;;;;;;7.24;88.94;101047.93;1777275;78;26179;-75
2021/04/18 04:47:59;;;;;;;;;;;;;;;7.23;88.88;101049.75;1794152;78;26486;-75
2021/04/18 04:50:27;;;;;;;;;;;;;;;7.24;88.97;101050.11;1764460;78;25865;-75
2021/04/18 04:52:54;;;;;;;;;;;;;;;7.20;88.89;101044.75;1779747;78;25737;-75
2021/04/18 04:55:21;;;;;;;;;;;;;;;7.20;89.05;101051.89;1769718;79;27623;-75
2021/04/18 04:57:49;;;;;;;;;;;;;;;7.23;89.16;101051.08;1754060;80;26568;-74
2021/04/18 05:00:18;;;;;;;;;;;;;;;7.25;89.09;101052.28;1762805;80;25824;-75
2021/04/18 05:02:45;;;;;;;;;;;;;;;7.24;89.02;101051.44;1726183;80;26348;-75
2021/04/18 05:05:14;;;;;;;;;;;;;;;7.28;89.29;101050.63;1774610;78;25722;-75
2021/04/18 05:07:42;;;;;;;;;;;;;;;7.34;89.38;101051.33;1777409;80;27592;-75
2021/04/18 05:10:10;;;;;;;;;;;;;;;7.36;89.23;101056.01;1746841;80;26216;-75
2021/04/18 05:12:37;;;;;;;;;;;;;;;7.33;89.14;101061.18;1750284;80;25796;-75
2021/04/18 05:15:05;;;;;;;;;;;;;;;7.30;89.08;101054.81;1774358;80;25934;-75
2021/04/18 05:17:34;;;;;;;;;;;;;;;7.30;89.23;101055.30;1771374;80;25787;-75
2021/04/18 05:20:01;;;;;;;;;;;;;;;7.30;89.21;101051.30;1745279;80;28321;-75
2021/04/18 05:22:29;;;;;;;;;;;;;;;7.29;89.25;101060.30;1722370;80;26379;-75
2021/04/18 05:24:56;;;;;;;;;;;;;;;7.27;89.33;101055.62;1753188;80;25847;-74
2021/04/18 05:27:25;;;;;;;;;;;;;;;7.27;89.37;101055.62;1772807;80;25797;-74
2021/04/18 05:29:53;;;;;;;;;;;;;;;7.24;89.51;101056.77;1751251;80;25922;-74
2021/04/18 05:32:20;;;;;;;;;;;;;;;7.24;89.46;101051.44;1763616;79;27329;-76
2021/04/18 05:34:48;;;;;;;;;;;;;;;7.25;89.60;101062.94;1772880;80;25366;-75
2021/04/18 05:37:16;;;;;;;;;;;;;;;7.24;89.59;101066.58;1775151;80;25833;-75
2021/04/18 05:39:43;;;;;;;;;;;;;;;7.22;89.66;101063.23;1751831;80;26026;-75
2021/04/18 05:42:10;;;;;;;;;;;;;;;7.21;89.90;101062.39;1751801;80;25875;-75
2021/04/18 05:44:37;;;;;;;;;;;;;;;7.23;90.02;101067.07;1725902;80;27539;-76
2021/04/18 05:47:05;;;;;;;;;;;;;;;7.25;90.00;101068.27;1775908;80;25683;-75
2021/04/18 05:49:34;;;;;;;;;;;;;;;7.24;90.04;101075.42;1695077;82;25708;-75
2021/04/18 05:52:03;;;;;;;;;;;;;;;7.25;90.10;101069.08;1712246;83;25854;-76
2021/04/18 05:54:30;;;;;;;;;;;;;;;7.28;90.28;101074.12;1690218;82;26173;-75
2021/04/18 05:56:57;;;;;;;;;;;;;;;7.33;90.41;101078.98;1679557;83;27548;-74
2021/04/18 05:59:24;;;;;;;;;;;;;;;7.34;90.27;101073.98;1751233;80;25758;-75
2021/04/18 06:01:51;;;;;;;;;;;;;;;7.33;90.13;101077.66;1698845;80;26459;-76
2021/04/18 06:04:18;;;;;;;;;;;;;;;7.33;90.27;101072.33;1691178;81;25942;-75
2021/04/18 06:06:45;;;;;;;;;;;;;;;7.32;90.06;101079.48;1751362;81;26397;-76
2021/04/18 06:09:13;;;;;;;;;;;;;;;7.32;90.23;101079.97;1740611;81;27610;-75
2021/04/18 06:11:40;;;;;;;;;;;;;;;7.32;90.45;101079.97;1738254;81;25815;-76
2021/04/18 06:14:07;;;;;;;;;;;;;;;7.33;90.50;101078.98;1724993;81;26262;-75
2021/04/18 06:16:35;;;;;;;;;;;;;;;7.35;90.54;101083.18;1738807;81;25842;-75
2021/04/18 06:19:02;;;;;;;;;;;;;;;7.41;90.80;101081.71;1739362;81;26257;-75
2021/04/18 06:21:29;;;;;;;;;;;;;;;7.47;90.83;101079.75;1706358;81;28459;-75
2021/04/18 06:23:56;;;;;;;;;;;;;;;7.52;90.84;101083.65;1729232;81;25924;-75
2021/04/18 06:26:25;;;;;;;;;;;;;;;7.58;90.60;101083.02;1738633;81;26476;-75
2021/04/18 06:28:53;;;;;;;;;;;;;;;7.61;90.41;101083.20;1667555;81;26399;-75
2021/04/18 06:31:20;;;;;;;;;;;;;;;7.67;90.37;101083.91;1716329;81;26011;-76
2021/04/18 06:33:49;;;;;;;;;;;;;;;7.72;90.11;101082.44;1706022;81;28546;-74
2021/04/18 06:36:16;;;;;;;;;;;;;;;7.75;89.80;101091.96;1710313;81;25816;-74
2021/04/18 06:38:44;;;;;;;;;;;;;;;7.76;89.69;101093.12;1724275;80;25828;-75
2021/04/18 06:41:20;;;;;;;;;;;;;;;7.76;89.71;101087.80;1720629;81;26216;-75
2021/04/18 06:43:59;;;;;;;;;;;;;;;7.80;89.82;101096.34;1748368;81;25836;-74
2021/04/18 06:46:27;;;;;;;;;;;;;;;7.85;89.40;101100.69;1800056;78;27623;-74
2021/04/18 06:48:54;;;;;;;;;;;;;;;7.86;89.20;101097.53;1790774;78;25965;-76
2021/04/18 06:51:21;;;;;;;;;;;;;;;7.88;89.29;101097.72;1788736;78;26138;-75
2021/04/18 06:53:49;;;;;;;;;;;;;;;7.89;89.29;101100.70;1804380;78;26038;-74
2021/04/18 06:56:18;;;;;;;;;;;;;;;7.95;89.78;101098.77;1796406;78;25895;-75
2021/04/18 06:58:45;;;;;;;;;;;;;;;7.98;89.57;101098.44;1739721;78;27336;-75
2021/04/18 07:01:14;;;;;;;;;;;;;;;8.03;89.83;101097.97;1759596;78;25787;-75
2021/04/18 07:03:41;;;;;;;;;;;;;;;8.09;89.83;101093.33;1742086;79;25899;-75
2021/04/18 07:06:13;;;;;;;;;;;;;;;8.17;89.84;101096.88;1774667;78;26418;-75
2021/04/18 07:08:41;;;;;;;;;;;;;;;8.25;89.92;101092.09;1795548;78;26182;-76
2021/04/18 07:11:13;;;;;;;;;;;;;;;8.30;89.73;101093.80;1800799;78;28572;-74
2021/04/18 07:13:42;;;;;;;;;;;;;;;8.38;89.67;101094.66;1748492;78;25890;-76
2021/04/18 07:16:33;;;;;;;;;;;;;;;8.43;89.57;101100.86;1777070;78;25817;-74
2021/04/18 07:19:00;;;;;;;;;;;;;;;8.45;89.37;101102.38;1770987;78;25926;-75
2021/04/18 07:21:46;;;;;;;;;;;;;;;8.48;89.27;101099.40;1775253;78;25768;-74
2021/04/18 07:24:13;;;;;;;;;;;;;;;8.53;89.17;101102.92;1764829;79;28240;-75
2021/04/18 07:26:40;;;;;;;;;;;;;;;8.55;88.93;101104.94;1782181;78;26387;-75
2021/04/18 07:29:20;;;;;;;;;;;;;;;8.55;88.69;101099.06;1770664;78;25902;-75
2021/04/18 07:31:50;;;;;;;;;;;;;;;8.52;88.31;101100.75;1796408;78;25747;-75
2021/04/18 07:34:22;;;;;;;;;;;;;;;8.55;88.60;101110.27;1751481;78;25927;-75
2021/04/18 07:36:54;;;;;;;;;;;;;;;8.60;88.51;101107.94;1773967;80;28290;-74
2021/04/18 07:39:22;;;;;;;;;;;;;;;8.66;88.55;101104.61;1798806;78;26267;-75
2021/04/18 07:41:53;;;;;;;;;;;;;;;8.72;88.39;101105.33;1746647;78;25769;-74
2021/04/18 07:44:20;;;;;;;;;;;;;;;8.76;88.18;101115.17;1774977;78;25982;-75
2021/04/18 07:46:51;;;;;;;;;;;;;;;8.76;88.08;101112.01;1757627;78;25946;-75
2021/04/18 07:49:19;;;;;;;;;;;;;;;8.79;88.29;101108.19;1793104;78;28633;-75
2021/04/18 07:51:48;;;;;;;;;;;;;;;8.84;88.25;101111.19;1792809;79;26382;-75
2021/04/18 07:54:17;;;;;;;;;;;;;;;8.88;88.06;101110.70;1762291;80;25777;-75
2021/04/18 07:56:47;;;;;;;;;;;;;;;8.90;87.90;101118.05;1778226;78;25732;-75
2021/04/18 07:59:16;;;;;;;;;;;;;;;8.91;88.00;101114.39;1803088;78;26086;-75
2021/04/18 08:01:44;;;;;;;;;;;;;;;8.95;87.73;101114.39;1792253;78;27806;-75
2021/04/18 08:04:12;;;;;;;;;;;;;;;8.95;87.78;101108.20;1775018;78;25634;-75
2021/04/18 08:06:44;;;;;;;;;;;;;;;8.98;87.97;101110.05;1778341;80;25892;-75
2021/04/18 08:09:22;;;;;;;;;;;;;;;9.00;87.55;101113.38;1803467;78;25739;-74
2021/04/18 08:12:18;;;;;;;;;;;;;;;8.99;87.11;101116.23;1796585;78;26090;-76
2021/04/18 08:14:47;;;;;;;;;;;;;;;8.91;86.31;101117.06;1784481;78;27519;-75
2021/04/18 08:17:16;;;;;;;;;;;;;;;8.90;86.90;101114.53;1774517;79;25815;-75
2021/04/18 08:19:58;;;;;;;;;;;;;;;8.91;86.98;101113.55;1764715;79;25812;-75
2021/04/18 08:22:25;;;;;;;;;;;;;;;8.94;87.16;101109.23;1787998;78;25785;-75
2021/04/18 08:25:08;;;;;;;;;;;;;;;8.96;86.98;101112.57;1771181;79;25795;-75
2021/04/18 08:28:08;;;;;;;;;;;;;;;8.98;87.00;101112.72;1801423;78;27540;-75
2021/04/18 08:31:02;;;;;;;;;;;;;;;9.04;87.04;101110.75;1802891;78;26146;-75
2021/04/18 08:33:43;;;;;;;;;;;;;;;9.15;87.26;101110.41;1798522;78;25710;-76
2021/04/18 08:36:23;;;;;;;;;;;;;;;9.22;87.16;101100.73;1784068;78;26513;-75
2021/04/18 08:39:03;;;;;;;;;;;;;;;9.29;86.74;101102.25;1803439;78;26207;-75
2021/04/18 08:41:44;;;;;;;;;;;;;;;9.31;86.47;101105.09;1799511;78;28048;-75
2021/04/18 08:44:24;;;;;;;;;;;;;;;9.34;86.11;101105.27;1746748;78;26459;-75
2021/04/18 08:47:06;;;;;;;;;;;;;;;9.33;85.60;101100.41;1798762;78;25775;-75
2021/04/18 08:49:39;;;;;;;;;;;;;;;9.37;86.36;101101.43;1774127;79;25977;-77
2021/04/18 08:52:09;;;;;;;;;;;;;;;9.41;85.72;101103.58;1796412;78;25833;-75
2021/04/18 08:54:39;;;;;;;;;;;;;;;9.41;85.28;101100.09;1787633;78;27542;-75
2021/04/18 08:57:12;;;;;;;;;;;;;;;9.37;85.01;101102.77;1781777;80;26073;-75
2021/04/18 08:59:40;;;;;;;;;;;;;;;9.34;85.37;101104.74;1756003;79;26267;-75
2021/04/18 09:02:10;;;;;;;;;;;;;;;9.37;85.08;101114.80;1776721;79;25733;-74
2021/04/18 09:04:39;;;;;;;;;;;;;;;9.38;84.99;101105.27;1771651;79;25784;-75
2021/04/18 09:07:09;;;;;;;;;;;;;;;9.40;85.17;101110.44;1787129;79;27607;-74
2021/04/18 09:09:36;;;;;;;;;;;;;;;9.44;85.28;101114.45;1781943;79;26070;-75
2021/04/18 09:12:04;;;;;;;;;;;;;;;9.47;85.48;101113.62;1788747;79;25790;-74
2021/04/18 09:14:39;;;;;;;;;;;;;;;9.53;85.61;101109.44;1790993;79;26435;-74
2021/04/18 09:17:21;;;;;;;;;;;;;;;9.53;85.29;101111.62;1781909;79;25719;-74
2021/04/18 09:20:00;;;;;;;;;;;;;;;9.60;85.34;101115.27;1794320;79;27622;-74
2021/04/18 09:22:30;;;;;;;;;;;;;;;9.62;85.12;101113.30;1767609;79;26150;-74
2021/04/18 09:25:10;;;;;;;;;;;;;;;9.68;84.88;101118.46;1777666;79;26362;-74
2021/04/18 09:27:56;;;;;;;;;;;;;;;9.69;84.66;101116.10;1768330;80;25836;-75
2021/04/18 09:30:23;;;;;;;;;;;;;;;9.74;84.69;101121.80;1796454;78;25890;-75
2021/04/18 09:32:59;;;;;;;;;;;;;;;9.72;84.14;101114.44;1791633;79;27527;-74
2021/04/18 09:35:27;;;;;;;;;;;;;;;9.70;84.10;101114.62;1786970;79;25771;-74
2021/04/18 09:38:02;;;;;;;;;;;;;;;9.70;83.96;101117.78;1759681;80;26417;-74
2021/04/18 09:40:34;;;;;;;;;;;;;;;9.72;84.35;101116.62;1764226;79;25874;-74
2021/04/18 09:43:05;;;;;;;;;;;;;;;9.81;84.46;101120.12;1777781;79;26502;-74
2021/04/18 09:45:32;;;;;;;;;;;;;;;9.84;84.50;101117.94;1781445;79;28231;-74
2021/04/18 09:48:14;;;;;;;;;;;;;;;9.89;84.12;101126.80;1790284;79;25972;-75
2021/04/18 09:50:42;;;;;;;;;;;;;;;9.90;84.33;101127.14;1761752;79;25795;-75
2021/04/18 09:53:25;;;;;;;;;;;;;;;9.91;84.35;101126.13;1776212;79;26369;-74
2021/04/18 09:56:08;;;;;;;;;;;;;;;9.88;84.24;101125.95;1791145;79;25819;-75
2021/04/18 09:58:41;;;;;;;;;;;;;;;9.93;84.01;101130.80;1771040;80;28460;-74
2021/04/18 10:01:27;;;;;;;;;;;;;;;9.99;83.85;101124.27;1772465;80;25993;-75
2021/04/18 10:03:55;;;;;;;;;;;;;;;10.09;84.13;101123.56;1794832;79;25763;-74
2021/04/18 10:06:24;;;;;;;;;;;;;;;10.18;84.50;101121.73;1770220;79;25787;-74
2021/04/18 10:08:58;;;;;;;;;;;;;;;10.25;84.24;101120.55;1774229;79;26027;-74
2021/04/18 10:11:25;;;;;;;;;;;;;;;10.30;84.21;101123.56;1770411;79;27531;-75
2021/04/18 10:13:57;;;;;;;;;;;;;;;10.37;84.07;101123.21;1768875;80;25739;-74
2021/04/18 10:16:40;;;;;;;;;;;;;;;10.45;84.13;101115.14;1785620;79;25384;-74
2021/04/18 10:19:14;;;;;;;;;;;;;;;10.53;83.75;101118.63;1770569;80;26431;-73
2021/04/18 10:21:42;;;;;;;;;;;;;;;10.58;83.99;101112.75;1770091;79;25953;-74
2021/04/18 10:24:36;;;;;;;;;;;;;;;10.62;83.62;101114.91;1753707;80;28336;-74
2021/04/18 10:27:07;;;;;;;;;;;;;;;10.69;83.61;101102.45;1783018;79;25805;-75
2021/04/18 10:29:34;;;;;;;;;;;;;;;10.75;83.52;101114.34;1748177;79;25803;-74
2021/04/18 10:32:03;;;;;;;;;;;;;;;10.81;83.41;101106.44;1748145;79;25952;-74
2021/04/18 10:34:31;;;;;;;;;;;;;;;10.86;83.43;101108.06;1780042;80;25365;-74
2021/04/18 10:36:59;;;;;;;;;;;;;;;10.88;82.48;101110.06;1795971;79;27381;-74
2021/04/18 10:39:28;;;;;;;;;;;;;;;10.97;82.80;101113.52;1742718;79;26658;-74
2021/04/18 10:41:55;;;;;;;;;;;;;;;10.99;82.04;101109.34;1777036;79;25743;-75
2021/04/18 10:44:22;;;;;;;;;;;;;;;10.96;81.66;101114.55;1770245;79;26475;-75
2021/04/18 10:46:52;;;;;;;;;;;;;;;10.94;81.06;101116.58;1743424;79;25776;-75
2021/04/18 10:49:22;;;;;;;;;;;;;;;10.95;81.28;101110.19;1795232;78;27914;-75
2021/04/18 10:51:49;;;;;;;;;;;;;;;10.98;81.17;101114.37;1769594;79;25730;-75
2021/04/18 10:54:17;;;;;;;;;;;;;;;11.00;80.22;101117.20;1764723;79;25812;-75
2021/04/18 10:56:45;;;;;;;;;;;;;;;11.00;80.02;101111.00;1791551;78;26395;-75
2021/04/18 10:59:12;;;;;;;;;;;;;;;11.07;81.13;101110.63;1769410;78;26150;-75
2021/04/18 11:01:40;;;;;;;;;;;;;;;11.26;80.72;101115.03;1799291;78;27376;-74
2021/04/18 11:04:09;;;;;;;;;;;;;;;11.34;80.88;101118.14;1778142;78;25783;-75
2021/04/18 11:06:39;;;;;;;;;;;;;;;11.42;80.39;101109.53;1781992;78;31326;-77
2021/04/18 11:09:07;;;;;;;;;;;;;;;11.40;79.05;101107.53;1726958;80;25824;-75
2021/04/18 11:11:35;;;;;;;;;;;;;;;11.45;80.25;101104.31;1749200;80;25708;-77
2021/04/18 11:14:06;;;;;;;;;;;;;;;11.54;79.65;101104.58;1754492;80;27531;-76
2021/04/18 11:16:36;;;;;;;;;;;;;;;11.58;79.75;101105.89;1768123;79;25827;-76
2021/04/18 11:19:04;;;;;;;;;;;;;;;11.65;79.54;101103.62;1754599;78;25988;-76
2021/04/18 11:21:31;;;;;;;;;;;;;;;11.73;79.10;101102.77;1749899;78;26469;-76
2021/04/18 11:23:58;;;;;;;;;;;;;;;11.76;78.13;101102.91;1724109;82;26158;-76
2021/04/18 11:26:26;;;;;;;;;;;;;;;11.83;78.60;101106.52;1724663;80;28922;-77
2021/04/18 11:28:57;;;;;;;;;;;;;;;11.88;77.79;101106.81;1745607;80;25839;-77
2021/04/18 11:31:25;;;;;;;;;;;;;;;11.94;78.04;101095.34;1727781;80;26421;-77
2021/04/18 11:33:52;;;;;;;;;;;;;;;12.06;78.22;101101.41;1749711;80;26044;-78
2021/04/18 11:36:20;;;;;;;;;;;;;;;12.16;78.49;101094.44;1722348;81;26161;-75
2021/04/18 11:38:47;;;;;;;;;;;;;;;12.24;77.80;101092.50;1747249;80;27349;-76
2021/04/18 11:41:14;;;;;;;;;;;;;;;12.28;77.09;101093.78;1741842;81;26340;-76
2021/04/18 11:43:41;;;;;;;;;;;;;;;12.37;77.56;101086.47;1752004;80;25763;-78
2021/04/18 11:46:09;;;;;;;;;;;;;;;12.48;77.25;101091.37;1752842;80;26442;-73
2021/04/18 11:48:37;;;;;;;;;;;;;;;12.59;77.21;101088.21;1756980;80;25785;-76
2021/04/18 11:51:05;;;;;;;;;;;;;;;12.73;76.90;101080.62;1751723;80;27742;-77
2021/04/18 11:53:33;;;;;;;;;;;;;;;12.85;76.99;101082.31;1742536;80;26308;-79
2021/04/18 11:56:00;;;;;;;;;;;;;;;12.94;76.07;101076.62;1724725;80;25592;-79
2021/04/18 11:58:27;;;;;;;;;;;;;;;12.96;75.77;101073.73;1724928;80;25843;-78
2021/04/18 12:00:55;;;;;;;;;;;;;;;13.05;75.45;101072.62;1756064;80;25688;-77
2021/04/18 12:03:22;;;;;;;;;;;;;;;13.15;75.42;101069.12;1723047;80;27426;-75
2021/04/18 12:05:49;;;;;;;;;;;;;;;13.19;74.70;101073.59;1730228;80;25811;-76
2021/04/18 12:08:16;;;;;;;;;;;;;;;13.28;75.63;101065.19;1759348;80;26385;-76
2021/04/18 12:10:43;;;;;;;;;;;;;;;13.38;75.02;101069.75;1709197;80;25876;-76
2021/04/18 12:13:10;;;;;;;;;;;;;;;13.44;73.67;101064.94;1740599;81;26382;-79
2021/04/18 12:15:38;;;;;;;;;;;;;;;13.50;74.66;101065.50;1739727;80;27678;-79
2021/04/18 12:18:05;;;;;;;;;;;;;;;13.52;72.88;101066.64;1737471;80;25881;-78
2021/04/18 12:20:32;;;;;;;;;;;;;;;13.46;73.33;101064.73;1763082;80;26646;-74
2021/04/18 12:22:59;;;;;;;;;;;;;;;13.53;74.54;101057.05;1727994;80;26283;-74
2021/04/18 12:25:27;;;;;;;;;;;;;;;13.69;74.14;101058.61;1738189;80;25702;-75
2021/04/18 12:27:54;;;;;;;;;;;;;;;13.84;74.06;101046.71;1738866;80;27532;-74
2021/04/18 12:30:21;;;;;;;;;;;;;;;13.97;73.25;101052.70;1713610;80;25807;-75
2021/04/18 12:32:49;;;;;;;;;;;;;;;14.03;72.77;101047.86;1735613;80;26442;-75
2021/04/18 12:35:18;;;;;;;;;;;;;;;14.09;73.65;101048.44;1718295;80;25786;-75